Huvudsida
METAR-TAF:

METAR-TAF

Flygplatser :

Pulas flygplats

Pula, Kroatien

latitud: 44-54N, longitud: 013-55E, höjd: 63 m

Aktuellt väderrapport

Denna rapport gjordes för 16 minuter sedan, klockan 22:00 UTC
Vind 8 kt från nordost
Temperatur 13°C
Fuktighet 28%
Tryck 1023 hPa
Sikt 10 km eller mer
Inga moln under 1 500 m eller inga cumulonimbus

METAR: LDPL 082200Z 04008KT CAVOK 13/M05 Q1023

Tid: 00:16 (22:16 UTC)

Väderprognos

Denna rapport gjordes för 4 timmar och 51 minuter sedan, klockan 17:25 UTC
Prognos gäller från 08 kl. 18 UTC till 09 kl. 18 UTC
Vind 5 kt från nordväst
Sikt 10 km eller mer
Inga moln under 1 500 m eller inga cumulonimbus
Sannolikhet 30% :
Temporärt
från 08 kl. 20 UTC till 09 kl. 04 UTC
Vind 8 kt från ost/nordost
Blir
från 09 kl. 10 UTC till 09 kl. 12 UTC
Vind 12 kt från väst

TAF: LDPL 081725Z 0818/0918 32005KT CAVOK TX21/0914Z TN06/0905Z PROB30 TEMPO 0820/0904 06008KT BECMG 0910/0912 27012KT

Aktuella väderrapporter och prognoser från 4000 flygplatser (METAR- och TAF-rapporter).

De tillgängliga stationerna syns som gula och röda prickar på kartan.

För musen över prickarna för att se namnen på stationerna.

Klicka sedan för att få väderrapporter och prognoser.

För att ändra kartan: Klicka på de gröna knapparna med ett svart kors på för att zooma in; den gröna knappen med ett streck på för att zooma ut; eller på de gröna pilarna för angränsande kartor.


METAR-TAF: